createdAt,value
2018-04-01T00:02:06.508Z,100161.64
2018-04-01T00:04:32.343Z,100157.59
2018-04-01T00:06:58.166Z,100154.02
2018-04-01T00:09:23.973Z,100158.50
2018-04-01T00:11:49.791Z,100158.77
2018-04-01T00:14:15.612Z,100161.27
2018-04-01T00:16:41.482Z,100162.72
2018-04-01T00:19:07.427Z,100161.95
2018-04-01T00:21:33.226Z,100167.22
2018-04-01T00:23:59.119Z,100173.80
2018-04-01T00:26:24.994Z,100174.21
2018-04-01T00:28:50.803Z,100173.49
2018-04-01T00:31:16.638Z,100177.75
2018-04-01T00:33:42.450Z,100177.97
2018-04-01T00:36:08.257Z,100181.95
2018-04-01T00:38:34.038Z,100184.56
2018-04-01T00:40:59.879Z,100184.98
2018-04-01T00:43:25.699Z,100189.05
2018-04-01T00:45:51.516Z,100192.64
2018-04-01T00:48:17.341Z,100195.86
2018-04-01T00:50:43.169Z,100197.41
2018-04-01T00:53:09.052Z,100203.46
2018-04-01T00:55:34.979Z,100200.24
2018-04-01T00:58:00.829Z,100204.94
2018-04-01T01:00:26.648Z,100202.75
2018-04-01T01:02:53.078Z,100207.45
2018-04-01T01:05:18.896Z,100206.92
2018-04-01T01:07:44.716Z,100213.69
2018-04-01T01:10:10.542Z,100212.86
2018-04-01T01:12:36.365Z,100216.77
2018-04-01T01:15:02.176Z,100213.14
2018-04-01T01:17:27.978Z,100217.81
2018-04-01T01:19:53.780Z,100216.28
2018-04-01T01:22:19.637Z,100218.80
2018-04-01T01:24:45.462Z,100219.02
2018-04-01T01:27:11.274Z,100218.97
2018-04-01T01:29:37.141Z,100221.96
2018-04-01T01:32:02.921Z,100216.28
2018-04-01T01:34:28.826Z,100216.42
2018-04-01T01:36:54.615Z,100216.85
2018-04-01T01:39:20.535Z,100217.95
2018-04-01T01:41:47.038Z,100219.64
2018-04-01T01:44:12.897Z,100232.83
2018-04-01T01:46:38.745Z,100226.20
2018-04-01T01:49:04.625Z,100224.31
2018-04-01T01:51:30.544Z,100230.33
2018-04-01T01:53:56.387Z,100230.61
2018-04-01T01:56:22.236Z,100242.53
2018-04-01T01:58:48.070Z,100236.39
2018-04-01T02:01:13.888Z,100240.37
2018-04-01T02:03:39.797Z,100243.31
2018-04-01T02:06:05.594Z,100242.05
2018-04-01T02:08:31.458Z,100242.75
2018-04-01T02:10:57.271Z,100243.17
2018-04-01T02:13:23.065Z,100241.25
2018-04-01T02:15:48.878Z,100238.59
2018-04-01T02:18:14.685Z,100238.46
2018-04-01T02:20:40.577Z,100244.19
2018-04-01T02:23:06.414Z,100244.81
2018-04-01T02:25:32.326Z,100243.91
2018-04-01T02:27:58.124Z,100246.63
2018-04-01T02:30:23.939Z,100248.23
2018-04-01T02:32:49.747Z,100246.55
2018-04-01T02:35:15.683Z,100247.25
2018-04-01T02:37:41.491Z,100240.06
2018-04-01T02:40:07.378Z,100248.16
2018-04-01T02:42:33.197Z,100245.72
2018-04-01T02:44:59.030Z,100249.13
2018-04-01T02:47:24.827Z,100247.80
2018-04-01T02:49:50.673Z,100249.34
2018-04-01T02:52:16.476Z,100254.57
2018-04-01T02:54:42.318Z,100252.62
2018-04-01T02:57:08.114Z,100255.57
2018-04-01T02:59:33.920Z,100262.05
2018-04-01T03:01:59.726Z,100262.33
2018-04-01T03:04:25.540Z,100257.64
2018-04-01T03:06:51.362Z,100259.39
2018-04-01T03:09:17.192Z,100254.31
2018-04-01T03:11:43.158Z,100256.68
2018-04-01T03:14:09.003Z,100258.98
2018-04-01T03:16:34.838Z,100261.22
2018-04-01T03:19:00.670Z,100262.53
2018-04-01T03:21:26.522Z,100265.19
2018-04-01T03:23:52.377Z,100266.30
2018-04-01T03:26:18.196Z,100262.66
2018-04-01T03:28:44.036Z,100265.87
2018-04-01T03:31:09.864Z,100272.69
2018-04-01T03:33:35.684Z,100268.72
2018-04-01T03:36:01.511Z,100276.80
2018-04-01T03:38:27.500Z,100274.66
2018-04-01T03:40:53.336Z,100274.37
2018-04-01T03:43:19.309Z,100277.64
2018-04-01T03:45:45.129Z,100284.20
2018-04-01T03:48:10.934Z,100293.69
2018-04-01T03:50:36.722Z,100296.38
2018-04-01T03:53:02.558Z,100302.30
2018-04-01T03:55:28.357Z,100298.69
2018-04-01T03:57:54.158Z,100299.95
2018-04-01T04:00:19.943Z,100299.45
2018-04-01T04:02:45.954Z,100299.31
2018-04-01T04:05:11.798Z,100298.98
2018-04-01T04:07:37.646Z,100299.38
2018-04-01T04:10:04.091Z,100301.41
2018-04-01T04:12:29.973Z,100300.36
2018-04-01T04:14:55.788Z,100303.15
2018-04-01T04:17:21.663Z,100297.50
2018-04-01T04:19:47.529Z,100306.42
2018-04-01T04:22:13.360Z,100307.04
2018-04-01T04:24:39.369Z,100310.55
2018-04-01T04:27:05.253Z,100318.54
2018-04-01T04:29:31.198Z,100315.23
2018-04-01T04:31:57.022Z,100319.69
2018-04-01T04:34:22.833Z,100328.74
2018-04-01T04:36:48.666Z,100328.06
2018-04-01T04:39:14.468Z,100328.83
2018-04-01T04:41:40.266Z,100333.50
2018-04-01T04:44:06.070Z,100336.44
2018-04-01T04:46:31.913Z,100343.41
2018-04-01T04:48:57.759Z,100344.55
2018-04-01T04:51:23.790Z,100335.89
2018-04-01T04:53:49.614Z,100345.03
2018-04-01T04:56:15.659Z,100344.34
2018-04-01T04:58:41.655Z,100341.49
2018-04-01T05:01:07.466Z,100341.42
2018-04-01T05:03:33.514Z,100345.47
2018-04-01T05:05:59.482Z,100340.67
2018-04-01T05:08:25.366Z,100350.84
2018-04-01T05:10:51.348Z,100348.83
2018-04-01T05:13:17.140Z,100349.82
2018-04-01T05:15:42.942Z,100344.19
2018-04-01T05:18:08.766Z,100347.47
2018-04-01T05:20:34.604Z,100344.62
2018-04-01T05:23:00.440Z,100348.66
2018-04-01T05:25:26.255Z,100352.28
2018-04-01T05:27:52.049Z,100358.56
2018-04-01T05:30:17.946Z,100367.70
2018-04-01T05:32:43.782Z,100365.05
2018-04-01T05:35:09.611Z,100366.78
2018-04-01T05:37:36.435Z,100381.20
2018-04-01T05:40:02.265Z,100381.91
2018-04-01T05:42:28.086Z,100385.03
2018-04-01T05:44:53.913Z,100391.61
2018-04-01T05:47:19.958Z,100395.10
2018-04-01T05:49:45.783Z,100396.52
2018-04-01T05:52:11.641Z,100404.11
2018-04-01T05:54:37.559Z,100407.05
2018-04-01T05:57:03.375Z,100409.77
2018-04-01T05:59:29.370Z,100420.20
2018-04-01T06:01:55.150Z,100418.40
2018-04-01T06:04:21.132Z,100421.05
2018-04-01T06:06:47.135Z,100430.37
2018-04-01T06:09:13.103Z,100435.53
2018-04-01T06:11:38.962Z,100445.34
2018-04-01T06:14:04.844Z,100441.84
2018-04-01T06:16:30.666Z,100437.13
2018-04-01T06:18:56.508Z,100442.58
2018-04-01T06:21:22.330Z,100443.73
2018-04-01T06:23:48.174Z,100460.13
2018-04-01T06:26:13.998Z,100453.75
2018-04-01T06:28:39.780Z,100453.80
2018-04-01T06:31:05.632Z,100460.59
2018-04-01T06:33:31.523Z,100463.31
2018-04-01T06:35:57.321Z,100464.28
2018-04-01T06:38:23.270Z,100462.00
2018-04-01T06:40:49.082Z,100469.31
2018-04-01T06:43:14.893Z,100469.66
2018-04-01T06:45:40.686Z,100467.63
2018-04-01T06:48:06.694Z,100476.02
2018-04-01T06:50:32.544Z,100474.48
2018-04-01T06:52:58.397Z,100480.70
2018-04-01T06:55:24.221Z,100487.00
2018-04-01T06:57:50.065Z,100484.79
2018-04-01T07:00:15.878Z,100487.28
2018-04-01T07:02:41.676Z,100491.50
2018-04-01T07:05:07.495Z,100500.36
2018-04-01T07:07:33.329Z,100494.84
2018-04-01T07:09:59.612Z,100497.58
2018-04-01T07:12:25.672Z,100508.88
2018-04-01T07:14:51.678Z,100509.80
2018-04-01T07:17:17.630Z,100509.58
2018-04-01T07:19:43.515Z,100523.08
2018-04-01T07:22:09.355Z,100531.20
2018-04-01T07:24:35.170Z,100538.87
2018-04-01T07:27:01.035Z,100540.19
2018-04-01T07:29:26.861Z,100547.08
2018-04-01T07:31:52.730Z,100550.86
2018-04-01T07:34:18.549Z,100567.23
2018-04-01T07:36:44.361Z,100575.72
2018-04-01T07:39:10.157Z,100584.86
2018-04-01T07:41:35.994Z,100582.98
2018-04-01T07:44:01.823Z,100587.32
2018-04-01T07:46:27.731Z,100589.32
2018-04-01T07:48:53.589Z,100596.14
2018-04-01T07:51:19.487Z,100603.80
2018-04-01T07:53:45.286Z,100605.92
2018-04-01T07:56:11.121Z,100601.59
2018-04-01T07:58:36.935Z,100610.42
2018-04-01T08:01:02.779Z,100615.30
2018-04-01T08:03:28.662Z,100626.61
2018-04-01T08:05:54.510Z,100633.98
2018-04-01T08:08:20.307Z,100633.31
2018-04-01T08:10:46.105Z,100634.41
2018-04-01T08:13:11.923Z,100641.68
2018-04-01T08:15:37.708Z,100645.85
2018-04-01T08:18:03.574Z,100654.65
2018-04-01T08:20:29.383Z,100662.92
2018-04-01T08:22:55.284Z,100671.66
2018-04-01T08:25:21.688Z,100677.50
2018-04-01T08:27:47.518Z,100678.05
2018-04-01T08:30:13.363Z,100681.47
2018-04-01T08:32:39.281Z,100677.97
2018-04-01T08:35:05.121Z,100686.07
2018-04-01T08:37:31.947Z,100690.30
2018-04-01T08:39:57.789Z,100696.83
2018-04-01T08:42:23.739Z,100709.35
2018-04-01T08:44:49.560Z,100714.39
2018-04-01T08:47:15.481Z,100712.34
2018-04-01T08:49:41.313Z,100718.47
2018-04-01T08:52:07.114Z,100723.22
2018-04-01T08:54:32.911Z,100720.97
2018-04-01T08:56:58.709Z,100732.92
2018-04-01T08:59:24.521Z,100742.78
2018-04-01T09:01:50.312Z,100744.84
2018-04-01T09:04:16.106Z,100746.13
2018-04-01T09:06:41.992Z,100753.22
2018-04-01T09:09:07.796Z,100757.77
2018-04-01T09:11:33.671Z,100763.32
2018-04-01T09:13:59.493Z,100767.17
2018-04-01T09:16:25.339Z,100774.53
2018-04-01T09:18:51.241Z,100773.13
2018-04-01T09:21:17.069Z,100784.77
2018-04-01T09:23:43.807Z,100786.09
2018-04-01T09:26:09.667Z,100793.08
2018-04-01T09:28:35.563Z,100791.15
2018-04-01T09:31:01.367Z,100792.03
2018-04-01T09:33:27.277Z,100805.18
2018-04-01T09:35:53.105Z,100803.70
2018-04-01T09:38:18.914Z,100811.13
2018-04-01T09:40:44.719Z,100817.70
2018-04-01T09:43:10.571Z,100821.22
2018-04-01T09:45:36.374Z,100817.58
2018-04-01T09:48:02.170Z,100831.35
2018-04-01T09:50:27.997Z,100836.19
2018-04-01T09:52:53.811Z,100836.23
2018-04-01T09:55:19.623Z,100837.45
2018-04-01T09:57:45.450Z,100839.20
2018-04-01T10:00:11.311Z,100839.29
2018-04-01T10:02:37.350Z,100845.16
2018-04-01T10:05:09.460Z,100841.32
2018-04-01T10:07:35.652Z,100852.27
2018-04-01T10:10:01.731Z,100855.85
2018-04-01T10:12:27.830Z,100854.97
2018-04-01T10:14:53.857Z,100860.20
2018-04-01T10:17:19.882Z,100866.42
2018-04-01T10:19:46.030Z,100870.28
2018-04-01T10:22:12.102Z,100871.10
2018-04-01T10:24:38.221Z,100869.59
2018-04-01T10:27:04.243Z,100880.54
2018-04-01T10:29:30.280Z,100884.06
2018-04-01T10:31:56.284Z,100884.45
2018-04-01T10:34:22.303Z,100891.12
2018-04-01T10:36:48.338Z,100899.18
2018-04-01T10:39:14.360Z,100900.03
2018-04-01T10:41:40.445Z,100900.06
2018-04-01T10:44:06.484Z,100908.34
2018-04-01T10:46:33.214Z,100903.25
2018-04-01T10:48:59.323Z,100911.88
2018-04-01T10:51:25.374Z,100914.37
2018-04-01T10:53:56.148Z,100915.50
2018-04-01T10:56:22.152Z,100915.68
2018-04-01T10:58:48.004Z,100916.14
2018-04-01T11:01:13.947Z,100918.81
2018-04-01T11:03:39.793Z,100925.80
2018-04-01T11:06:05.686Z,100924.77
2018-04-01T11:08:31.654Z,100929.98
2018-04-01T11:10:57.542Z,100935.13
2018-04-01T11:13:23.445Z,100944.50
2018-04-01T11:15:49.410Z,100946.66
2018-04-01T11:18:15.228Z,100956.76
2018-04-01T11:20:41.115Z,100953.53
2018-04-01T11:23:06.941Z,100953.48
2018-04-01T11:25:32.797Z,100958.51
2018-04-01T11:27:58.636Z,100965.89
2018-04-01T11:30:24.456Z,100967.92
2018-04-01T11:32:50.284Z,100971.65
2018-04-01T11:35:16.093Z,100969.92
2018-04-01T11:37:41.941Z,100974.81
2018-04-01T11:40:07.800Z,100976.92
2018-04-01T11:42:33.632Z,100979.91
2018-04-01T11:44:59.513Z,100982.86
2018-04-01T11:47:25.565Z,100992.44
2018-04-01T11:49:51.432Z,100986.26
2018-04-01T11:52:17.395Z,100995.89
2018-04-01T11:54:43.342Z,100997.25
2018-04-01T11:57:09.952Z,100996.50
2018-04-01T11:59:35.767Z,101000.65
2018-04-01T12:02:01.582Z,101007.91
2018-04-01T12:04:27.486Z,101007.45
2018-04-01T12:06:53.356Z,101006.84
2018-04-01T12:09:19.334Z,101016.84
2018-04-01T12:11:45.200Z,101013.25
2018-04-01T12:14:11.034Z,101016.45
2018-04-01T12:16:36.889Z,101014.41
2018-04-01T12:19:02.811Z,101013.48
2018-04-01T12:21:28.747Z,101019.67
2018-04-01T12:23:54.573Z,101020.81
2018-04-01T12:26:20.402Z,101021.09
2018-04-01T12:28:46.270Z,101020.90
2018-04-01T12:31:12.131Z,101027.14
2018-04-01T12:33:37.977Z,101032.06
2018-04-01T12:36:03.802Z,101033.87
2018-04-01T12:38:29.654Z,101039.11
2018-04-01T12:40:55.467Z,101043.33
2018-04-01T12:43:21.407Z,101052.16
2018-04-01T12:45:47.222Z,101052.64
2018-04-01T12:48:13.109Z,101050.23
2018-04-01T12:50:38.943Z,101046.89
2018-04-01T12:53:04.764Z,101051.97
2018-04-01T12:55:30.695Z,101055.71
2018-04-01T12:57:56.537Z,101056.88
2018-04-01T13:00:22.332Z,101067.66
2018-04-01T13:02:48.141Z,101073.09
2018-04-01T13:05:13.968Z,101073.49
2018-04-01T13:07:39.928Z,101085.14
2018-04-01T13:10:05.847Z,101077.48
2018-04-01T13:12:31.649Z,101078.69
2018-04-01T13:14:57.532Z,101085.64
2018-04-01T13:17:23.353Z,101081.20
2018-04-01T13:19:49.314Z,101090.42
2018-04-01T13:22:15.121Z,101092.01
2018-04-01T13:24:41.055Z,101092.03
2018-04-01T13:27:06.930Z,101087.09
2018-04-01T13:29:33.495Z,101091.00
2018-04-01T13:31:59.399Z,101090.77
2018-04-01T13:34:25.280Z,101098.63
2018-04-01T13:36:51.145Z,101093.80
2018-04-01T13:39:16.949Z,101090.84
2018-04-01T13:41:42.766Z,101097.22
2018-04-01T13:44:08.633Z,101097.38
2018-04-01T13:46:34.442Z,101102.06
2018-04-01T13:49:00.294Z,101108.81
2018-04-01T13:51:26.103Z,101100.41
2018-04-01T13:53:51.972Z,101102.28
2018-04-01T13:56:17.886Z,101102.14
2018-04-01T13:58:43.751Z,101096.64
2018-04-01T14:01:09.549Z,101110.84
2018-04-01T14:03:35.444Z,101104.87
2018-04-01T14:06:01.260Z,101103.14
2018-04-01T14:08:27.261Z,101103.38
2018-04-01T14:10:53.115Z,101109.14
2018-04-01T14:13:18.927Z,101104.45
2018-04-01T14:15:44.782Z,101105.50
2018-04-01T14:18:10.628Z,101102.11
2018-04-01T14:20:36.531Z,101113.22
2018-04-01T14:23:02.412Z,101097.20
2018-04-01T14:25:28.247Z,101107.32
2018-04-01T14:27:54.094Z,101101.82
2018-04-01T14:30:19.945Z,101102.73
2018-04-01T14:32:45.755Z,101111.56
2018-04-01T14:35:11.675Z,101122.28
2018-04-01T14:37:37.482Z,101117.64
2018-04-01T14:40:03.351Z,101125.59
2018-04-01T14:42:29.180Z,101139.45
2018-04-01T14:44:55.023Z,101136.88
2018-04-01T14:47:20.983Z,101141.70
2018-04-01T14:49:46.820Z,101146.69
2018-04-01T14:52:12.627Z,101147.08
2018-04-01T14:54:38.466Z,101151.48
2018-04-01T14:57:04.321Z,101156.21
2018-04-01T14:59:30.154Z,101158.42
2018-04-01T15:01:56.218Z,101165.98
2018-04-01T15:04:22.047Z,101165.28
2018-04-01T15:06:47.838Z,101165.84
2018-04-01T15:09:13.832Z,101171.79
2018-04-01T15:11:39.698Z,101169.16
2018-04-01T15:14:05.606Z,101165.14
2018-04-01T15:16:31.521Z,101166.06
2018-04-01T15:18:57.356Z,101164.53
2018-04-01T15:21:23.272Z,101160.27
2018-04-01T15:23:49.103Z,101159.45
2018-04-01T15:26:14.914Z,101163.77
2018-04-01T15:28:40.771Z,101161.09
2018-04-01T15:31:06.628Z,101163.22
2018-04-01T15:33:32.489Z,101170.28
2018-04-01T15:35:58.285Z,101171.44
2018-04-01T15:38:24.184Z,101175.80
2018-04-01T15:40:50.036Z,101180.52
2018-04-01T15:43:15.844Z,101186.50
2018-04-01T15:45:41.694Z,101194.61
2018-04-01T15:48:07.550Z,101185.09
2018-04-01T15:50:33.371Z,101183.83
2018-04-01T15:52:59.308Z,101183.53
2018-04-01T15:55:25.279Z,101185.23
2018-04-01T15:57:51.130Z,101184.64
2018-04-01T16:00:16.973Z,101189.22
2018-04-01T16:02:42.811Z,101186.28
2018-04-01T16:05:08.622Z,101182.84
2018-04-01T16:07:34.458Z,101191.53
2018-04-01T16:10:00.260Z,101192.13
2018-04-01T16:12:26.085Z,101188.53
2018-04-01T16:14:51.912Z,101190.76
2018-04-01T16:17:17.697Z,101193.77
2018-04-01T16:19:43.658Z,101198.32
2018-04-01T16:22:10.023Z,101202.90
2018-04-01T16:24:35.944Z,101205.63
2018-04-01T16:27:01.826Z,101203.91
2018-04-01T16:29:27.697Z,101198.67
2018-04-01T16:31:53.562Z,101207.86
2018-04-01T16:34:19.381Z,101218.41
2018-04-01T16:36:45.173Z,101213.40
2018-04-01T16:39:11.085Z,101206.04
2018-04-01T16:41:36.911Z,101202.30
2018-04-01T16:44:02.716Z,101203.92
2018-04-01T16:46:28.522Z,101205.33
2018-04-01T16:48:54.352Z,101204.34
2018-04-01T16:51:20.212Z,101208.53
2018-04-01T16:53:46.102Z,101207.09
2018-04-01T16:56:11.970Z,101206.97
2018-04-01T16:58:37.851Z,101205.56
2018-04-01T17:01:03.665Z,101212.08
2018-04-01T17:03:29.496Z,101208.77
2018-04-01T17:05:55.400Z,101209.73
2018-04-01T17:08:21.211Z,101220.05
2018-04-01T17:10:47.070Z,101214.47
2018-04-01T17:13:12.907Z,101218.14
2018-04-01T17:15:38.739Z,101213.73
2018-04-01T17:18:04.571Z,101212.64
2018-04-01T17:20:30.379Z,101218.52
2018-04-01T17:25:15.710Z,101225.97
2018-04-01T17:27:42.311Z,101226.71
2018-04-01T17:30:08.155Z,101226.59
2018-04-01T17:32:34.016Z,101228.75
2018-04-01T17:34:59.828Z,101238.11
2018-04-01T17:37:25.746Z,101241.72
2018-04-01T17:39:51.638Z,101239.43
2018-04-01T17:42:17.545Z,101233.82
2018-04-01T17:44:43.376Z,101232.66
2018-04-01T17:47:09.228Z,101227.27
2018-04-01T17:49:35.103Z,101235.30
2018-04-01T17:52:00.909Z,101235.42
2018-04-01T17:54:26.781Z,101230.52
2018-04-01T17:56:52.690Z,101230.64
2018-04-01T17:59:18.671Z,101225.83
2018-04-01T18:01:44.530Z,101231.38
2018-04-01T18:04:10.323Z,101238.44
2018-04-01T18:06:36.129Z,101235.61
2018-04-01T18:09:02.005Z,101235.40
2018-04-01T18:11:27.902Z,101235.11
2018-04-01T18:13:53.705Z,101241.60
2018-04-01T18:16:19.607Z,101236.69
2018-04-01T18:18:45.474Z,101237.17
2018-04-01T18:21:11.339Z,101242.03
2018-04-01T18:23:37.155Z,101242.70
2018-04-01T18:26:02.962Z,101241.91
2018-04-01T18:28:28.788Z,101253.94
2018-04-01T18:30:54.649Z,101252.19
2018-04-01T18:33:20.491Z,101255.02
2018-04-01T18:35:46.309Z,101255.18
2018-04-01T18:38:12.145Z,101262.71
2018-04-01T18:40:37.966Z,101262.00
2018-04-01T18:43:03.850Z,101257.64
2018-04-01T18:45:29.724Z,101261.78
2018-04-01T18:47:56.085Z,101262.85
2018-04-01T18:50:22.013Z,101261.70
2018-04-01T18:52:47.807Z,101273.80
2018-04-01T18:55:13.666Z,101276.25
2018-04-01T18:57:39.569Z,101271.48
2018-04-01T19:00:05.359Z,101276.27
2018-04-01T19:02:31.310Z,101278.41
2018-04-01T19:04:57.894Z,101277.95
2018-04-01T19:07:23.840Z,101275.65
2018-04-01T19:09:49.666Z,101278.20
2018-04-01T19:12:15.539Z,101282.39
2018-04-01T19:14:42.163Z,101283.67
2018-04-01T19:17:08.185Z,101278.00
2018-04-01T19:19:34.314Z,101286.21
2018-04-01T19:22:00.445Z,101290.46
2018-04-01T19:24:26.462Z,101288.45
2018-04-01T19:26:52.456Z,101283.84
2018-04-01T19:29:18.531Z,101283.46
2018-04-01T19:31:44.630Z,101280.97
2018-04-01T19:34:10.659Z,101280.77
2018-04-01T19:36:36.681Z,101278.83
2018-04-01T19:39:02.793Z,101275.06
2018-04-01T19:41:28.802Z,101275.06
2018-04-01T19:43:54.835Z,101276.75
2018-04-01T19:46:20.896Z,101279.59
2018-04-01T19:48:46.915Z,101281.66
2018-04-01T19:51:13.047Z,101274.88
2018-04-01T19:53:39.171Z,101266.80
2018-04-01T19:56:12.093Z,101269.73
2018-04-01T19:58:38.207Z,101268.19
2018-04-01T20:01:04.371Z,101259.45
2018-04-01T20:03:30.608Z,101265.48
2018-04-01T20:05:56.607Z,101260.23
2018-04-01T20:08:23.292Z,101263.56
2018-04-01T20:10:49.427Z,101255.89
2018-04-01T20:13:15.490Z,101261.70
2018-04-01T20:15:41.570Z,101256.77
2018-04-01T20:18:07.776Z,101268.87
2018-04-01T20:20:33.888Z,101267.83
2018-04-01T20:23:00.015Z,101263.00
2018-04-01T20:25:26.079Z,101264.39
2018-04-01T20:27:52.095Z,101265.00
2018-04-01T20:30:18.201Z,101266.22
2018-04-01T20:32:44.263Z,101271.16
2018-04-01T20:35:10.387Z,101275.52
2018-04-01T20:37:36.539Z,101276.19
2018-04-01T20:40:02.613Z,101273.60
2018-04-01T20:42:28.772Z,101278.46
2018-04-01T20:44:54.915Z,101281.31
2018-04-01T20:47:20.970Z,101282.83
2018-04-01T20:49:47.060Z,101278.69
2018-04-01T20:52:13.850Z,101278.09
2018-04-01T20:54:40.089Z,101274.70
2018-04-01T20:57:06.059Z,101272.43
2018-04-01T20:59:32.117Z,101275.31
2018-04-01T21:01:58.229Z,101276.59
2018-04-01T21:04:24.405Z,101269.48
2018-04-01T21:06:50.541Z,101275.75
2018-04-01T21:09:16.670Z,101272.83
2018-04-01T21:11:42.708Z,101274.14
2018-04-01T21:14:08.806Z,101267.16
2018-04-01T21:16:34.840Z,101261.38
2018-04-01T21:19:00.894Z,101264.91
2018-04-01T21:21:27.040Z,101252.09
2018-04-01T21:23:53.154Z,101255.48
2018-04-01T21:26:19.213Z,101251.47
2018-04-01T21:28:45.239Z,101261.05
2018-04-01T21:31:11.317Z,101255.86
2018-04-01T21:33:37.419Z,101261.28
2018-04-01T21:36:03.435Z,101256.11
2018-04-01T21:38:29.478Z,101251.02
2018-04-01T21:40:56.124Z,101254.69
2018-04-01T21:43:23.127Z,101261.85
2018-04-01T21:45:49.150Z,101255.20
2018-04-01T21:48:15.176Z,101256.11
2018-04-01T21:50:41.174Z,101259.12
2018-04-01T21:53:07.199Z,101258.42
2018-04-01T21:55:33.210Z,101261.71
2018-04-01T21:57:59.279Z,101256.91
2018-04-01T22:00:25.301Z,101256.30
2018-04-01T22:02:51.364Z,101253.70
2018-04-01T22:05:17.514Z,101248.72
2018-04-01T22:07:43.583Z,101242.97
2018-04-01T22:10:10.250Z,101240.14
2018-04-01T22:12:36.280Z,101231.33
2018-04-01T22:15:02.408Z,101227.79
2018-04-01T22:17:28.486Z,101229.39
2018-04-01T22:19:54.536Z,101225.86
2018-04-01T22:22:20.634Z,101226.05
2018-04-01T22:24:46.653Z,101227.94
2018-04-01T22:27:12.664Z,101221.86
2018-04-01T22:29:38.753Z,101223.09
2018-04-01T22:32:04.827Z,101216.20
2018-04-01T22:34:30.876Z,101216.87
2018-04-01T22:36:56.926Z,101209.04
2018-04-01T22:39:22.985Z,101203.67
2018-04-01T22:41:49.054Z,101206.59
2018-04-01T22:44:15.058Z,101205.41
2018-04-01T22:46:41.091Z,101208.52
2018-04-01T22:49:07.170Z,101212.66
2018-04-01T22:51:33.222Z,101206.40
2018-04-01T22:53:59.250Z,101204.31
2018-04-01T22:56:25.302Z,101207.36
2018-04-01T22:58:52.040Z,101205.33
2018-04-01T23:01:18.057Z,101196.06
2018-04-01T23:03:44.078Z,101191.78
2018-04-01T23:06:10.130Z,101183.48
2018-04-01T23:08:36.149Z,101189.59
2018-04-01T23:11:02.275Z,101189.44
2018-04-01T23:13:28.969Z,101187.80
2018-04-01T23:15:55.081Z,101195.14
2018-04-01T23:18:22.825Z,101189.03
2018-04-01T23:20:48.933Z,101192.38
2018-04-01T23:23:15.023Z,101180.57
2018-04-01T23:25:41.072Z,101185.33
2018-04-01T23:28:07.104Z,101185.23
2018-04-01T23:30:33.149Z,101185.02
2018-04-01T23:32:59.198Z,101184.87
2018-04-01T23:35:25.228Z,101172.35
2018-04-01T23:37:51.331Z,101174.58
2018-04-01T23:40:17.374Z,101170.27
2018-04-01T23:42:43.474Z,101168.02
2018-04-01T23:45:09.506Z,101173.15
2018-04-01T23:47:35.674Z,101170.77
2018-04-01T23:50:01.884Z,101170.19
2018-04-01T23:52:27.981Z,101170.34
2018-04-01T23:54:54.034Z,101168.91
2018-04-01T23:57:20.071Z,101168.28
2018-04-01T23:59:46.075Z,101164.86
